createdAt,value
2019-05-22T00:00:47.021Z,40.63
2019-05-22T00:03:19.445Z,42.70
2019-05-22T00:05:50.182Z,37.67
2019-05-22T00:08:20.367Z,36.97
2019-05-22T00:10:51.434Z,42.00
2019-05-22T00:13:23.764Z,42.73
2019-05-22T00:15:54.456Z,44.17
2019-05-22T00:18:25.336Z,44.53
2019-05-22T00:20:55.462Z,39.90
2019-05-22T00:23:26.504Z,37.50
2019-05-22T00:25:57.358Z,37.43
2019-05-22T00:28:28.063Z,38.10
2019-05-22T00:30:59.107Z,38.70
2019-05-22T00:33:29.927Z,40.40
2019-05-22T00:36:02.184Z,39.10
2019-05-22T00:38:34.180Z,40.80
2019-05-22T00:41:07.836Z,39.00
2019-05-22T00:43:42.436Z,41.20
2019-05-22T00:46:16.887Z,38.40
2019-05-22T00:48:47.823Z,36.50
2019-05-22T00:51:27.326Z,37.23
2019-05-22T00:54:25.846Z,32.77
2019-05-22T00:57:16.795Z,36.43
2019-05-22T00:59:49.448Z,33.87
2019-05-22T01:02:26.775Z,34.63
2019-05-22T01:04:58.163Z,34.93
2019-05-22T01:07:37.362Z,31.40
2019-05-22T01:10:09.094Z,37.20
2019-05-22T01:12:42.479Z,34.50
2019-05-22T01:15:15.336Z,34.97
2019-05-22T01:17:46.889Z,35.33
2019-05-22T01:20:18.798Z,31.70
2019-05-22T01:22:49.507Z,35.20
2019-05-22T01:25:21.815Z,40.70
2019-05-22T01:27:52.420Z,41.57
2019-05-22T01:30:47.998Z,37.33
2019-05-22T01:33:26.134Z,36.97
2019-05-22T01:36:19.539Z,36.90
2019-05-22T01:38:48.928Z,36.03
2019-05-22T01:41:28.261Z,39.77
2019-05-22T01:44:01.908Z,40.07
2019-05-22T01:46:32.853Z,39.13
2019-05-22T01:49:06.449Z,39.27
2019-05-22T01:51:37.997Z,39.10
2019-05-22T01:54:11.602Z,38.30
2019-05-22T01:56:41.786Z,40.57
2019-05-22T01:59:11.187Z,40.53
2019-05-22T02:01:42.136Z,41.03
2019-05-22T02:04:14.903Z,40.10
2019-05-22T02:06:47.638Z,44.17
2019-05-22T02:09:23.731Z,43.30
2019-05-22T02:11:56.574Z,42.80
2019-05-22T02:14:27.545Z,44.47
2019-05-22T02:17:00.966Z,41.67
2019-05-22T02:19:30.251Z,46.10
2019-05-22T02:22:02.023Z,49.13
2019-05-22T02:24:31.953Z,44.00
2019-05-22T02:27:02.975Z,44.97
2019-05-22T02:29:32.821Z,47.10
2019-05-22T02:32:06.693Z,52.40
2019-05-22T02:34:37.183Z,52.47
2019-05-22T02:37:07.409Z,52.53
2019-05-22T02:39:43.041Z,51.80
2019-05-22T02:42:15.280Z,58.17
2019-05-22T02:44:48.826Z,59.30
2019-05-22T02:47:21.736Z,66.17
2019-05-22T02:49:51.508Z,61.07
2019-05-22T02:52:25.980Z,72.23
2019-05-22T02:55:07.771Z,62.43
2019-05-22T02:57:43.109Z,56.67
2019-05-22T03:00:12.736Z,56.97
2019-05-22T03:03:07.394Z,57.10
2019-05-22T03:05:29.325Z,54.80
2019-05-22T03:07:59.279Z,51.90
2019-05-22T03:10:29.162Z,54.47
2019-05-22T03:12:58.310Z,52.43
2019-05-22T03:15:28.075Z,52.17
2019-05-22T03:18:04.540Z,51.27
2019-05-22T03:20:35.753Z,55.10
2019-05-22T03:23:42.432Z,47.00
2019-05-22T03:26:13.576Z,47.67
2019-05-22T03:28:43.676Z,45.73
2019-05-22T03:31:13.555Z,45.13
2019-05-22T03:33:43.315Z,47.03
2019-05-22T03:36:18.961Z,38.27
2019-05-22T03:38:49.594Z,39.00
2019-05-22T03:41:24.176Z,40.60
2019-05-22T03:43:55.545Z,42.73
2019-05-22T03:46:48.191Z,40.67
2019-05-22T03:49:29.849Z,43.13
2019-05-22T03:51:56.149Z,43.10
2019-05-22T03:54:25.570Z,47.00
2019-05-22T03:56:59.006Z,40.07
2019-05-22T03:59:28.560Z,41.27
2019-05-22T04:01:58.989Z,40.70
2019-05-22T04:04:39.367Z,38.47
2019-05-22T04:07:11.430Z,41.47
2019-05-22T04:09:42.893Z,42.20
2019-05-22T04:12:13.851Z,39.83
2019-05-22T04:14:43.256Z,38.00
2019-05-22T04:17:14.406Z,33.90
2019-05-22T04:19:50.206Z,36.37
2019-05-22T04:22:17.568Z,36.23
2019-05-22T04:24:47.052Z,33.10
2019-05-22T04:27:18.027Z,37.00
2019-05-22T04:29:49.986Z,32.70
2019-05-22T04:32:31.932Z,33.73
2019-05-22T04:35:02.519Z,33.43
2019-05-22T04:37:32.866Z,33.60
2019-05-22T04:40:24.298Z,32.83
2019-05-22T04:42:55.952Z,31.20
2019-05-22T04:45:28.418Z,27.27
2019-05-22T04:48:01.076Z,29.67
2019-05-22T04:50:40.990Z,27.03
2019-05-22T04:53:16.098Z,25.73
2019-05-22T04:55:45.910Z,24.93
2019-05-22T04:58:17.559Z,27.23
2019-05-22T05:00:47.301Z,25.43
2019-05-22T05:03:39.522Z,21.63
2019-05-22T05:06:09.461Z,22.23
2019-05-22T05:08:38.778Z,19.53
2019-05-22T05:11:07.995Z,24.43
2019-05-22T05:13:40.925Z,22.83
2019-05-22T05:16:10.207Z,19.67
2019-05-22T05:18:39.919Z,22.70
2019-05-22T05:21:10.086Z,20.90
2019-05-22T05:23:40.057Z,21.80
2019-05-22T05:26:09.951Z,21.00
2019-05-22T05:28:42.681Z,25.30
2019-05-22T05:31:26.025Z,22.20
2019-05-22T05:34:21.884Z,22.53
2019-05-22T05:36:55.827Z,21.63
2019-05-22T05:39:43.957Z,20.50
2019-05-22T05:42:15.304Z,16.70
2019-05-22T05:44:45.709Z,16.53
2019-05-22T05:47:15.423Z,14.43
2019-05-22T05:49:48.863Z,11.63
2019-05-22T05:52:18.935Z,13.50
2019-05-22T05:54:53.752Z,13.13
2019-05-22T05:58:14.992Z,8.90
2019-05-22T06:00:51.800Z,10.40
2019-05-22T06:03:32.015Z,9.40
2019-05-22T06:06:31.168Z,9.13
2019-05-22T06:09:01.071Z,10.37
2019-05-22T06:11:43.008Z,11.53
2019-05-22T06:14:19.466Z,10.17
2019-05-22T06:17:08.474Z,9.83
2019-05-22T06:19:41.039Z,11.47
2019-05-22T06:22:18.373Z,12.63
2019-05-22T06:25:09.804Z,10.03
2019-05-22T06:28:02.685Z,13.97
2019-05-22T06:32:09.636Z,8.37
2019-05-22T06:34:03.527Z,8.47
2019-05-22T06:37:04.168Z,9.40
2019-05-22T06:39:09.937Z,6.57
2019-05-22T06:41:45.316Z,6.27
2019-05-22T06:44:35.741Z,5.60
2019-05-22T06:47:09.685Z,6.00
2019-05-22T06:49:51.887Z,6.93
2019-05-22T06:52:39.476Z,6.90
2019-05-22T06:55:32.989Z,3.90
2019-05-22T06:58:13.170Z,4.80
2019-05-22T07:01:17.723Z,4.67
2019-05-22T07:03:20.680Z,7.00
2019-05-22T07:05:58.132Z,11.93
2019-05-22T07:08:23.452Z,8.40
2019-05-22T07:10:53.260Z,5.07
2019-05-22T07:13:25.977Z,5.53
2019-05-22T07:16:02.541Z,5.70
2019-05-22T07:18:35.526Z,6.93
2019-05-22T07:21:06.529Z,8.17
2019-05-22T07:23:41.943Z,7.23
2019-05-22T07:26:12.456Z,6.73
2019-05-22T07:28:42.075Z,8.83
2019-05-22T07:31:11.950Z,7.57
2019-05-22T07:33:42.118Z,7.30
2019-05-22T07:36:16.772Z,10.10
2019-05-22T07:38:44.709Z,6.97
2019-05-22T07:41:14.389Z,5.67
2019-05-22T07:43:44.173Z,8.17
2019-05-22T07:46:13.450Z,4.57
2019-05-22T07:48:43.232Z,6.10
2019-05-22T07:51:12.944Z,7.63
2019-05-22T07:53:42.757Z,9.60
2019-05-22T07:56:15.668Z,6.67
2019-05-22T07:58:44.965Z,6.30
2019-05-22T08:01:15.834Z,6.03
2019-05-22T08:03:45.402Z,6.80
2019-05-22T08:06:14.709Z,8.77
2019-05-22T08:08:45.342Z,6.80
2019-05-22T08:11:14.926Z,5.33
2019-05-22T08:13:44.907Z,5.10
2019-05-22T08:16:14.784Z,6.63
2019-05-22T08:18:45.419Z,5.90
2019-05-22T08:21:15.738Z,6.47
2019-05-22T08:23:45.145Z,7.50
2019-05-22T08:26:16.520Z,6.30
2019-05-22T08:28:46.057Z,5.73
2019-05-22T08:31:17.176Z,8.00
2019-05-22T08:33:47.591Z,5.87
2019-05-22T08:36:16.984Z,4.97
2019-05-22T08:38:46.314Z,6.53
2019-05-22T08:41:17.680Z,5.70
2019-05-22T08:44:13.690Z,5.43
2019-05-22T08:46:18.756Z,4.33
2019-05-22T08:48:49.765Z,4.97
2019-05-22T08:51:20.111Z,4.03
2019-05-22T08:53:51.761Z,4.63
2019-05-22T08:56:21.920Z,6.30
2019-05-22T08:58:51.796Z,4.90
2019-05-22T09:01:21.274Z,4.83
2019-05-22T09:03:51.028Z,6.13
2019-05-22T09:06:21.021Z,4.53
2019-05-22T09:08:50.956Z,4.23
2019-05-22T09:11:20.160Z,4.83
2019-05-22T09:13:49.739Z,4.37
2019-05-22T09:16:20.154Z,7.33
2019-05-22T09:18:50.166Z,4.17
2019-05-22T09:21:20.201Z,5.73
2019-05-22T09:23:50.009Z,6.60
2019-05-22T09:26:19.768Z,4.60
2019-05-22T09:28:49.528Z,6.87
2019-05-22T09:31:19.612Z,5.20
2019-05-22T09:33:50.811Z,4.57
2019-05-22T09:36:20.094Z,4.23
2019-05-22T09:38:52.219Z,5.97
2019-05-22T09:41:20.697Z,5.50
2019-05-22T09:43:50.304Z,6.63
2019-05-22T09:46:20.326Z,6.30
2019-05-22T09:48:50.534Z,8.07
2019-05-22T09:51:20.597Z,5.13
2019-05-22T09:53:51.223Z,7.17
2019-05-22T09:56:21.542Z,6.47
2019-05-22T09:58:51.415Z,7.43
2019-05-22T10:01:21.383Z,4.87
2019-05-22T10:03:51.679Z,7.20
2019-05-22T10:06:21.871Z,6.27
2019-05-22T10:08:51.254Z,5.83
2019-05-22T10:11:21.427Z,7.63
2019-05-22T10:13:51.374Z,6.37
2019-05-22T10:16:20.791Z,6.93
2019-05-22T10:18:53.125Z,8.93
2019-05-22T10:21:22.180Z,8.13
2019-05-22T10:23:52.585Z,7.53
2019-05-22T10:26:23.503Z,8.67
2019-05-22T10:28:52.854Z,9.30
2019-05-22T10:31:22.211Z,6.70
2019-05-22T10:33:54.359Z,8.47
2019-05-22T10:36:24.551Z,6.73
2019-05-22T10:38:54.249Z,8.73
2019-05-22T10:41:25.376Z,6.83
2019-05-22T10:43:55.198Z,9.23
2019-05-22T10:46:26.367Z,9.50
2019-05-22T10:48:57.035Z,10.73
2019-05-22T10:51:29.293Z,8.93
2019-05-22T10:53:58.777Z,10.83
2019-05-22T10:56:28.637Z,9.90
2019-05-22T10:59:01.396Z,7.53
2019-05-22T11:01:31.199Z,8.10
2019-05-22T11:04:01.129Z,15.57
2019-05-22T11:06:30.617Z,8.00
2019-05-22T11:09:00.485Z,10.83
2019-05-22T11:11:32.715Z,11.07
2019-05-22T11:14:04.628Z,11.13
2019-05-22T11:16:35.093Z,12.23
2019-05-22T11:19:05.798Z,11.83
2019-05-22T11:21:35.925Z,10.03
2019-05-22T11:24:05.249Z,12.40
2019-05-22T11:26:34.873Z,13.30
2019-05-22T11:29:05.944Z,13.23
2019-05-22T11:31:36.316Z,9.90
2019-05-22T11:34:06.493Z,15.73
2019-05-22T11:36:36.259Z,15.60
2019-05-22T11:39:08.907Z,13.77
2019-05-22T11:41:38.653Z,10.07
2019-05-22T11:44:08.838Z,13.30
2019-05-22T11:46:38.721Z,10.80
2019-05-22T11:49:08.665Z,11.60
2019-05-22T11:51:38.670Z,11.47
2019-05-22T11:54:09.814Z,14.00
2019-05-22T11:56:39.956Z,11.03
2019-05-22T11:59:10.580Z,11.40
2019-05-22T12:01:40.699Z,11.23
2019-05-22T12:04:13.073Z,12.27
2019-05-22T12:06:42.684Z,13.07
2019-05-22T12:09:13.457Z,10.63
2019-05-22T12:11:43.415Z,13.87
2019-05-22T12:14:13.865Z,12.33
2019-05-22T12:16:43.687Z,9.03
2019-05-22T12:19:13.160Z,8.30
2019-05-22T12:21:42.902Z,11.10
2019-05-22T12:24:26.229Z,11.57
2019-05-22T12:26:43.442Z,8.80
2019-05-22T12:29:16.847Z,13.47
2019-05-22T12:31:45.503Z,9.57
2019-05-22T12:34:15.346Z,9.27
2019-05-22T12:36:44.799Z,9.40
2019-05-22T12:39:14.903Z,12.67
2019-05-22T12:41:45.850Z,12.63
2019-05-22T12:44:18.335Z,12.00
2019-05-22T12:46:47.646Z,15.47
2019-05-22T12:49:17.998Z,10.93
2019-05-22T12:51:48.405Z,12.07
2019-05-22T12:54:18.646Z,9.80
2019-05-22T12:56:49.232Z,13.43
2019-05-22T12:59:20.310Z,17.00
2019-05-22T13:01:51.559Z,12.67
2019-05-22T13:04:22.549Z,11.00
2019-05-22T13:06:52.502Z,10.67
2019-05-22T13:09:21.930Z,10.93
2019-05-22T13:11:51.866Z,10.93
2019-05-22T13:14:21.422Z,11.50
2019-05-22T13:16:50.747Z,12.73
2019-05-22T13:19:21.098Z,15.37
2019-05-22T13:21:53.247Z,18.23
2019-05-22T13:24:23.008Z,15.57
2019-05-22T13:26:55.695Z,12.97
2019-05-22T13:29:28.226Z,14.10
2019-05-22T13:31:58.504Z,16.77
2019-05-22T13:34:29.262Z,18.73
2019-05-22T13:36:58.943Z,18.13
2019-05-22T13:39:28.699Z,15.57
2019-05-22T13:41:58.005Z,15.30
2019-05-22T13:44:28.776Z,16.00
2019-05-22T13:46:59.035Z,18.43
2019-05-22T13:49:30.322Z,18.37
2019-05-22T13:51:59.899Z,15.33
2019-05-22T13:54:30.970Z,17.47
2019-05-22T13:57:00.365Z,15.90
2019-05-22T13:59:30.613Z,16.60
2019-05-22T14:02:01.003Z,15.27
2019-05-22T14:04:30.831Z,15.93
2019-05-22T14:07:03.174Z,18.33
2019-05-22T14:09:32.850Z,16.63
2019-05-22T14:12:02.625Z,19.80
2019-05-22T14:14:32.618Z,17.10
2019-05-22T14:17:02.568Z,19.33
2019-05-22T14:19:32.363Z,14.07
2019-05-22T14:22:02.691Z,18.87
2019-05-22T14:24:32.443Z,17.20
2019-05-22T14:27:02.275Z,14.40
2019-05-22T14:29:34.806Z,14.37
2019-05-22T14:32:09.929Z,12.40
2019-05-22T14:34:39.233Z,14.90
2019-05-22T14:37:10.952Z,13.53
2019-05-22T14:39:40.700Z,12.17
2019-05-22T14:42:10.921Z,13.13
2019-05-22T14:44:40.860Z,14.70
2019-05-22T14:47:14.234Z,13.50
2019-05-22T14:49:41.026Z,14.53
2019-05-22T14:52:10.970Z,13.50
2019-05-22T14:54:40.402Z,19.17
2019-05-22T14:57:10.044Z,19.23
2019-05-22T14:59:40.424Z,20.87
2019-05-22T15:02:12.808Z,33.43
2019-05-22T15:04:42.977Z,26.27
2019-05-22T15:07:12.450Z,19.93
2019-05-22T15:09:41.809Z,14.20
2019-05-22T15:12:11.318Z,15.30
2019-05-22T15:14:40.614Z,18.80
2019-05-22T15:17:10.454Z,16.13
2019-05-22T15:19:39.937Z,18.67
2019-05-22T15:22:09.386Z,18.10
2019-05-22T15:24:39.590Z,16.97
2019-05-22T15:27:10.339Z,18.10
2019-05-22T15:29:40.355Z,17.43
2019-05-22T15:32:10.500Z,20.30
2019-05-22T15:34:40.731Z,27.70
2019-05-22T15:37:13.245Z,21.97
2019-05-22T15:39:44.130Z,21.53
2019-05-22T15:42:46.648Z,19.77
2019-05-22T15:45:18.901Z,22.17
2019-05-22T15:47:55.439Z,21.23
2019-05-22T15:50:26.794Z,26.30
2019-05-22T15:53:04.224Z,29.43
2019-05-22T15:55:35.199Z,30.50
2019-05-22T15:58:05.203Z,27.07
2019-05-22T16:00:37.017Z,34.17
2019-05-22T16:03:11.715Z,43.30
2019-05-22T16:05:44.076Z,38.50
2019-05-22T16:08:14.726Z,40.43
2019-05-22T16:10:46.535Z,47.10
2019-05-22T16:13:19.043Z,39.37
2019-05-22T16:15:51.839Z,35.30
2019-05-22T16:18:27.562Z,40.87
2019-05-22T16:21:00.863Z,30.80
2019-05-22T16:23:32.723Z,34.00
2019-05-22T16:26:03.255Z,30.20
2019-05-22T16:28:36.122Z,28.93
2019-05-22T16:31:07.626Z,30.63
2019-05-22T16:33:38.863Z,37.40
2019-05-22T16:36:08.611Z,27.77
2019-05-22T16:38:39.106Z,26.03
2019-05-22T16:41:08.602Z,28.30
2019-05-22T16:43:48.736Z,31.40
2019-05-22T16:46:14.035Z,25.93
2019-05-22T16:48:45.012Z,25.27
2019-05-22T16:51:16.334Z,24.70
2019-05-22T16:53:55.776Z,27.63
2019-05-22T16:56:26.227Z,29.97
2019-05-22T16:58:56.103Z,23.00
2019-05-22T17:01:26.457Z,26.17
2019-05-22T17:03:57.773Z,27.10
2019-05-22T17:06:27.531Z,30.13
2019-05-22T17:08:59.015Z,29.17
2019-05-22T17:11:29.594Z,28.20
2019-05-22T17:14:01.417Z,28.00
2019-05-22T17:16:34.297Z,36.03
2019-05-22T17:19:03.510Z,27.87
2019-05-22T17:21:33.570Z,29.03
2019-05-22T17:24:04.403Z,29.93
2019-05-22T17:26:34.867Z,25.37
2019-05-22T17:29:04.649Z,26.23
2019-05-22T17:31:34.728Z,28.53
2019-05-22T17:34:04.828Z,27.70
2019-05-22T17:36:35.700Z,26.33
2019-05-22T17:39:09.543Z,21.43
2019-05-22T17:41:41.308Z,21.63
2019-05-22T17:44:12.046Z,21.20
2019-05-22T17:46:43.774Z,23.80
2019-05-22T17:49:13.811Z,19.80
2019-05-22T17:51:43.126Z,35.53
2019-05-22T17:54:14.193Z,32.87
2019-05-22T17:56:45.642Z,24.33
2019-05-22T17:59:14.973Z,24.93
2019-05-22T18:01:44.123Z,19.83
2019-05-22T18:04:15.682Z,18.67
2019-05-22T18:06:45.486Z,19.67
2019-05-22T18:09:15.340Z,19.43
2019-05-22T18:11:44.579Z,21.97
2019-05-22T18:14:13.862Z,21.10
2019-05-22T18:16:43.319Z,21.63
2019-05-22T18:19:12.593Z,21.00
2019-05-22T18:21:42.571Z,20.80
2019-05-22T18:24:12.288Z,22.03
2019-05-22T18:26:42.324Z,20.87
2019-05-22T18:29:12.258Z,18.87
2019-05-22T18:31:42.473Z,15.13
2019-05-22T18:34:11.903Z,17.13
2019-05-22T18:36:41.632Z,17.70
2019-05-22T18:39:12.803Z,19.50
2019-05-22T18:41:42.461Z,21.43
2019-05-22T18:44:12.179Z,16.77
2019-05-22T18:46:42.470Z,19.17
2019-05-22T18:49:12.004Z,18.33
2019-05-22T18:51:41.794Z,19.50
2019-05-22T18:54:11.776Z,18.07
2019-05-22T18:56:41.927Z,15.43
2019-05-22T18:59:13.387Z,19.00
2019-05-22T19:01:43.335Z,15.43
2019-05-22T19:04:12.808Z,18.80
2019-05-22T19:06:42.664Z,16.50
2019-05-22T19:09:11.993Z,13.83
2019-05-22T19:11:41.853Z,13.67
2019-05-22T19:14:11.717Z,13.37
2019-05-22T19:16:40.917Z,13.73
2019-05-22T19:19:10.596Z,18.23
2019-05-22T19:21:39.990Z,23.73
2019-05-22T19:24:11.044Z,24.17
2019-05-22T19:26:40.791Z,30.57
2019-05-22T19:29:13.175Z,14.87
2019-05-22T19:31:42.873Z,14.87
2019-05-22T19:34:13.592Z,13.07
2019-05-22T19:36:43.184Z,12.27
2019-05-22T19:39:12.411Z,12.70
2019-05-22T19:41:42.252Z,12.77
2019-05-22T19:44:13.236Z,14.53
2019-05-22T19:46:43.074Z,12.27
2019-05-22T19:49:12.468Z,13.90
2019-05-22T19:51:41.806Z,12.27
2019-05-22T19:54:11.947Z,11.57
2019-05-22T19:56:42.231Z,10.27
2019-05-22T19:59:12.706Z,9.90
2019-05-22T20:01:42.519Z,10.60
2019-05-22T20:04:12.555Z,12.70
2019-05-22T20:06:43.167Z,8.87
2019-05-22T20:09:13.250Z,20.77
2019-05-22T20:11:42.681Z,12.50
2019-05-22T20:14:12.409Z,12.37
2019-05-22T20:16:42.536Z,11.77
2019-05-22T20:19:12.611Z,12.70
2019-05-22T20:21:42.568Z,18.80
2019-05-22T20:24:12.477Z,31.63
2019-05-22T20:26:42.289Z,25.47
2019-05-22T20:29:13.170Z,13.17
2019-05-22T20:31:44.763Z,13.50
2019-05-22T20:34:22.591Z,11.07
2019-05-22T20:36:51.985Z,15.33
2019-05-22T20:39:24.078Z,9.20
2019-05-22T20:41:53.491Z,11.67
2019-05-22T20:44:25.169Z,11.37
2019-05-22T20:46:55.927Z,14.23
2019-05-22T20:49:26.304Z,14.97
2019-05-22T20:51:59.146Z,13.60
2019-05-22T20:54:30.686Z,15.57
2019-05-22T20:57:04.265Z,13.97
2019-05-22T20:59:33.912Z,14.47
2019-05-22T21:02:04.178Z,15.83
2019-05-22T21:04:35.632Z,8.60
2019-05-22T21:07:11.568Z,11.57
2019-05-22T21:09:42.038Z,13.70
2019-05-22T21:12:15.072Z,16.13
2019-05-22T21:14:44.882Z,11.87
2019-05-22T21:17:16.871Z,11.17
2019-05-22T21:19:48.578Z,13.30
2019-05-22T21:22:46.469Z,14.90
2019-05-22T21:25:07.520Z,10.87
2019-05-22T21:27:58.937Z,14.67
2019-05-22T21:31:04.751Z,12.50
2019-05-22T21:33:39.777Z,17.73
2019-05-22T21:36:27.779Z,13.30
2019-05-22T21:39:13.494Z,13.50
2019-05-22T21:41:54.738Z,16.17
2019-05-22T21:44:25.929Z,12.20
2019-05-22T21:47:02.240Z,18.23
2019-05-22T21:49:38.577Z,19.13
2019-05-22T21:52:12.772Z,17.27
2019-05-22T21:55:05.663Z,13.10
2019-05-22T21:57:35.625Z,17.40
2019-05-22T22:00:16.362Z,16.17
2019-05-22T22:02:59.909Z,19.27
2019-05-22T22:05:30.108Z,13.77
2019-05-22T22:08:26.331Z,12.87
2019-05-22T22:10:47.997Z,13.03
2019-05-22T22:13:23.929Z,13.53
2019-05-22T22:16:07.811Z,18.30
2019-05-22T22:18:37.440Z,16.93
2019-05-22T22:21:09.421Z,19.23
2019-05-22T22:23:40.003Z,21.10
2019-05-22T22:26:24.628Z,13.63
2019-05-22T22:28:41.776Z,21.07
2019-05-22T22:31:14.541Z,15.70
2019-05-22T22:33:50.651Z,23.20
2019-05-22T22:36:20.672Z,21.57
2019-05-22T22:38:51.159Z,22.13
2019-05-22T22:41:21.345Z,16.90
2019-05-22T22:43:52.287Z,19.63
2019-05-22T22:46:31.824Z,21.07
2019-05-22T22:49:03.067Z,20.60
2019-05-22T22:51:33.182Z,17.87
2019-05-22T22:54:04.808Z,17.00
2019-05-22T22:56:34.748Z,21.13
2019-05-22T22:59:07.188Z,16.67
2019-05-22T23:01:41.457Z,16.87
2019-05-22T23:04:12.287Z,18.50
2019-05-22T23:06:42.728Z,17.47
2019-05-22T23:09:14.507Z,15.07
2019-05-22T23:11:45.676Z,18.37
2019-05-22T23:14:16.042Z,16.40
2019-05-22T23:16:45.950Z,16.90
2019-05-22T23:19:32.118Z,18.00
2019-05-22T23:22:01.441Z,12.97
2019-05-22T23:24:32.740Z,13.87
2019-05-22T23:27:03.443Z,15.07
2019-05-22T23:29:33.383Z,11.43
2019-05-22T23:32:04.101Z,11.90
2019-05-22T23:34:33.796Z,13.17
2019-05-22T23:37:03.742Z,12.90
2019-05-22T23:39:33.275Z,12.43
2019-05-22T23:42:05.096Z,11.97
2019-05-22T23:44:36.663Z,12.70
2019-05-22T23:47:07.858Z,12.87
2019-05-22T23:49:37.944Z,13.73
2019-05-22T23:52:08.419Z,11.50
2019-05-22T23:54:38.700Z,13.07
2019-05-22T23:57:12.950Z,9.07
2019-05-22T23:59:44.614Z,7.43
